Casper, WY

7:25 AM MDT on May 04, 2015 (GMT -0600)
Casper Mountain Foothills | | Change Station
CLOSE
Current Station
Personal Weather Station
Location: Casper, WY
Elevation: 5334 ft
Nearby Weather Stations
Active Advisory: Special Statement

Elev 5334 ft 42.83 °N, 106.31 °W | Updated 14 seconds ago

Overcast
Overcast
46.2 °F
Feels Like 46 °F
N
0.0
Wind Variable Wind from WSW
Gusts 0.0 mph

Today
High -- | Low -- °F
--% Chance of Precip.
Yesterday
High -- | Low -- °F
Precip. -- in
5:55 AM 8:09 PM
Full, 100% visible
Pressure 30.06 in
Visibility 1.8 miles
Clouds Few 100 ft
Overcast 600 ft
Windchill 46 °F
Dew Point 44 °F
Humidity 92%
Rainfall 0.00 in
Snow Depth Not available.
UV 0 out of 12
Pollen 8.20 out of 12
Air Quality Not available.
Flu Activity Sporadic
SPECI KCPR 041316Z 33003KT 1 3/4SM R03/5500VP6000FT BR FEW001 OVC006 07/07 A3006 RMK AO2 T00670067

More Conditions Fewer Conditions

Pressure 30.06 in
Visibility 1.8 miles
Clouds Few 100 ft
Overcast 600 ft
Windchill 46 °F
Dew Point 44 °F
Humidity 92%
Rainfall 0.00 in
Snow Depth Not available.
UV 0 out of 12
Pollen 8.20 out of 12
Air Quality Not available.
Flu Activity Sporadic
SPECI KCPR 041316Z 33003KT 1 3/4SM R03/5500VP6000FT BR FEW001 OVC006 07/07 A3006 RMK AO2 T00670067

More Conditions Fewer Conditions

Nepal has a long way to go to dig out and rebuild from a devastating earthquake. We have teamed up with several charities and organizations to make contributing to the relief effort as easy as possible.
How you can help: Portlight Strategies | Red Cross

10-Day Weather Forecast

Almanac

Astronomy

May. 04, 2015 Rise Set
Actual Time
Civil Twilight
Nautical Twilight
Astronomical Twilight
Moon
Length of Visible Light
Length of Day
Tomorrow will be .
, % of the Moon is Illuminated

Today's Extremes

State Highs State Lows

Community

WunderPhotos

Upload Photos

1,818,604 photos uploaded!

WunderBlogs® & News

Nearby

Air Quality

  Air Quality AQ Index Pollutant
Not available.

Snow Depth

Station Depth Elevation

Earthquake Activity

City Distance Mag. Time & Date
Minimum magnitude displayed is 2.5.

Coastal Water Temperatures

Place Temperature

Stations

Nearby Weather Stations

Station Location Temp. Windchill Dew Point Humidity Wind Precip. Elev Updated Type
                   
Special Statement
Statement as of 6:34 AM MDT on May 04, 2015

Through 8 am... areas of fog limiting visibility to one-
half mile or less will be encountered across the Casper area...
especially across the south and west sides. Use your low beam
headlights to remain visible to other drivers and be alert for
stopped school buses that may be obscured in the fog.


634 am MDT Mon may 4 2015

Through 8 am... areas of fog limiting visibility to one-
half mile or less will be encountered across the Casper area...
especially across the south and west sides. Use your low beam
headlights to remain visible to other drivers and be alert for
stopped school buses that may be obscured in the fog.


Aem